sensor_id;sensor_type;location;lat;lon;timestamp;pressure;altitude;pressure_sealevel;temperature;humidity
5966;BME280;3009;43.224;27.976;2023-02-14T00:01:33;101891.56;;;-1.50;100.00
5966;BME280;3009;43.224;27.976;2023-02-14T00:04:01;101893.56;;;-0.61;100.00
5966;BME280;3009;43.224;27.976;2023-02-14T00:06:31;101880.19;;;-0.04;100.00
5966;BME280;3009;43.224;27.976;2023-02-14T00:09:01;101869.69;;;0.29;100.00
5966;BME280;3009;43.224;27.976;2023-02-14T00:11:29;101875.97;;;0.35;100.00
5966;BME280;3009;43.224;27.976;2023-02-14T00:13:59;101867.84;;;0.63;100.00
5966;BME280;3009;43.224;27.976;2023-02-14T00:16:44;101863.91;;;0.99;96.75
5966;BME280;3009;43.224;27.976;2023-02-14T00:19:14;101864.31;;;1.10;95.36
5966;BME280;3009;43.224;27.976;2023-02-14T00:21:42;101864.47;;;1.21;93.71
5966;BME280;3009;43.224;27.976;2023-02-14T00:24:13;101860.41;;;1.26;92.54
5966;BME280;3009;43.224;27.976;2023-02-14T00:26:42;101852.69;;;1.24;92.14
5966;BME280;3009;43.224;27.976;2023-02-14T00:29:13;101847.59;;;1.29;92.45
5966;BME280;3009;43.224;27.976;2023-02-14T00:31:42;101845.59;;;1.18;92.70
5966;BME280;3009;43.224;27.976;2023-02-14T00:34:11;101840.53;;;1.16;92.66
5966;BME280;3009;43.224;27.976;2023-02-14T00:36:39;101845.56;;;1.24;92.16
5966;BME280;3009;43.224;27.976;2023-02-14T00:39:08;101842.56;;;1.14;92.09
5966;BME280;3009;43.224;27.976;2023-02-14T00:41:37;101834.09;;;0.92;91.12
5966;BME280;3009;43.224;27.976;2023-02-14T00:44:06;101819.59;;;1.08;92.49
5966;BME280;3009;43.224;27.976;2023-02-14T00:46:36;101814.09;;;1.16;92.22
5966;BME280;3009;43.224;27.976;2023-02-14T00:49:05;101810.97;;;1.33;91.31
5966;BME280;3009;43.224;27.976;2023-02-14T00:51:33;101806.50;;;1.33;91.07
5966;BME280;3009;43.224;27.976;2023-02-14T00:54:01;101800.81;;;1.36;91.00
5966;BME280;3009;43.224;27.976;2023-02-14T00:56:30;101799.22;;;1.29;90.63
5966;BME280;3009;43.224;27.976;2023-02-14T00:58:59;101789.03;;;1.32;90.52
5966;BME280;3009;43.224;27.976;2023-02-14T01:01:27;101790.19;;;1.43;90.15
5966;BME280;3009;43.224;27.976;2023-02-14T01:03:57;101780.22;;;1.45;89.90
5966;BME280;3009;43.224;27.976;2023-02-14T01:06:26;101775.75;;;1.46;89.76
5966;BME280;3009;43.224;27.976;2023-02-14T01:08:54;101762.09;;;1.49;89.28
5966;BME280;3009;43.224;27.976;2023-02-14T01:11:23;101765.16;;;1.46;89.52
5966;BME280;3009;43.224;27.976;2023-02-14T01:13:54;101768.38;;;1.54;89.53
5966;BME280;3009;43.224;27.976;2023-02-14T01:16:26;101744.81;;;1.46;89.23
5966;BME280;3009;43.224;27.976;2023-02-14T01:18:56;101754.38;;;1.47;88.77
5966;BME280;3009;43.224;27.976;2023-02-14T01:21:27;101746.38;;;1.61;88.37
5966;BME280;3009;43.224;27.976;2023-02-14T01:23:58;101746.03;;;1.50;87.52
5966;BME280;3009;43.224;27.976;2023-02-14T01:26:27;101743.31;;;1.57;87.66
5966;BME280;3009;43.224;27.976;2023-02-14T01:28:56;101745.53;;;1.60;87.82
5966;BME280;3009;43.224;27.976;2023-02-14T01:31:25;101750.47;;;1.56;87.25
5966;BME280;3009;43.224;27.976;2023-02-14T01:33:54;101741.94;;;1.54;87.70
5966;BME280;3009;43.224;27.976;2023-02-14T01:36:25;101733.16;;;1.61;88.16
5966;BME280;3009;43.224;27.976;2023-02-14T01:38:55;101735.72;;;1.74;87.67
5966;BME280;3009;43.224;27.976;2023-02-14T01:41:26;101736.13;;;1.71;87.23
5966;BME280;3009;43.224;27.976;2023-02-14T01:43:57;101729.44;;;1.68;87.25
5966;BME280;3009;43.224;27.976;2023-02-14T01:46:28;101728.78;;;1.73;87.09
5966;BME280;3009;43.224;27.976;2023-02-14T01:49:01;101725.72;;;1.76;86.55
5966;BME280;3009;43.224;27.976;2023-02-14T01:51:32;101725.47;;;1.84;86.06
5966;BME280;3009;43.224;27.976;2023-02-14T01:54:03;101738.50;;;1.79;85.79
5966;BME280;3009;43.224;27.976;2023-02-14T01:56:35;101720.00;;;1.79;85.82
5966;BME280;3009;43.224;27.976;2023-02-14T01:59:07;101726.25;;;1.85;85.62
5966;BME280;3009;43.224;27.976;2023-02-14T02:01:37;101725.88;;;1.81;84.87
5966;BME280;3009;43.224;27.976;2023-02-14T02:04:09;101716.88;;;1.89;84.17
5966;BME280;3009;43.224;27.976;2023-02-14T02:06:43;101713.69;;;1.80;84.13
5966;BME280;3009;43.224;27.976;2023-02-14T02:09:16;101705.69;;;1.87;84.13
5966;BME280;3009;43.224;27.976;2023-02-14T02:11:47;101700.41;;;1.87;84.06
5966;BME280;3009;43.224;27.976;2023-02-14T02:14:17;101698.81;;;1.86;83.84
5966;BME280;3009;43.224;27.976;2023-02-14T02:17:03;101677.84;;;1.84;83.55
5966;BME280;3009;43.224;27.976;2023-02-14T02:26:01;101680.44;;;1.66;83.76
5966;BME280;3009;43.224;27.976;2023-02-14T02:29:10;101675.53;;;1.69;83.32
5966;BME280;3009;43.224;27.976;2023-02-14T02:32:20;101662.91;;;1.71;82.84
5966;BME280;3009;43.224;27.976;2023-02-14T02:35:14;101670.19;;;1.76;81.92
5966;BME280;3009;43.224;27.976;2023-02-14T02:37:59;101663.66;;;1.79;81.74
5966;BME280;3009;43.224;27.976;2023-02-14T02:40:43;101659.59;;;1.76;81.42
5966;BME280;3009;43.224;27.976;2023-02-14T02:43:29;101669.75;;;1.79;81.13
5966;BME280;3009;43.224;27.976;2023-02-14T02:46:02;101658.38;;;1.79;81.27
5966;BME280;3009;43.224;27.976;2023-02-14T02:48:56;101660.34;;;1.83;80.54
5966;BME280;3009;43.224;27.976;2023-02-14T02:51:32;101667.75;;;1.74;80.29
5966;BME280;3009;43.224;27.976;2023-02-14T02:54:27;101654.38;;;1.69;80.36
5966;BME280;3009;43.224;27.976;2023-02-14T02:56:58;101668.25;;;1.65;80.55
5966;BME280;3009;43.224;27.976;2023-02-14T02:59:29;101668.25;;;1.65;80.56
5966;BME280;3009;43.224;27.976;2023-02-14T03:02:03;101657.50;;;1.59;80.73
5966;BME280;3009;43.224;27.976;2023-02-14T03:04:35;101655.88;;;1.58;80.94
5966;BME280;3009;43.224;27.976;2023-02-14T03:07:31;101652.81;;;1.62;80.17
5966;BME280;3009;43.224;27.976;2023-02-14T03:10:08;101639.00;;;1.59;80.13
5966;BME280;3009;43.224;27.976;2023-02-14T03:12:55;101636.13;;;1.61;79.61
5966;BME280;3009;43.224;27.976;2023-02-14T03:15:38;101639.66;;;1.55;79.48
5966;BME280;3009;43.224;27.976;2023-02-14T03:18:17;101633.56;;;1.54;79.36
5966;BME280;3009;43.224;27.976;2023-02-14T03:21:17;101630.91;;;1.54;78.98
5966;BME280;3009;43.224;27.976;2023-02-14T03:23:53;101625.84;;;1.53;78.85
5966;BME280;3009;43.224;27.976;2023-02-14T03:26:30;101621.94;;;1.55;79.26
5966;BME280;3009;43.224;27.976;2023-02-14T03:29:09;101610.94;;;1.58;79.22
5966;BME280;3009;43.224;27.976;2023-02-14T03:31:45;101609.13;;;1.59;79.02
5966;BME280;3009;43.224;27.976;2023-02-14T03:34:22;101608.16;;;1.53;79.07
5966;BME280;3009;43.224;27.976;2023-02-14T03:36:57;101604.09;;;1.51;79.24
5966;BME280;3009;43.224;27.976;2023-02-14T03:39:31;101598.66;;;1.46;79.56
5966;BME280;3009;43.224;27.976;2023-02-14T03:42:05;101585.06;;;1.42;79.37
5966;BME280;3009;43.224;27.976;2023-02-14T03:44:36;101584.47;;;1.40;80.00
5966;BME280;3009;43.224;27.976;2023-02-14T03:47:08;101587.97;;;1.34;81.08
5966;BME280;3009;43.224;27.976;2023-02-14T03:49:41;101581.06;;;1.33;80.53
5966;BME280;3009;43.224;27.976;2023-02-14T03:52:11;101571.63;;;1.18;80.88
5966;BME280;3009;43.224;27.976;2023-02-14T03:54:44;101573.72;;;1.10;81.56
5966;BME280;3009;43.224;27.976;2023-02-14T03:57:19;101580.47;;;1.05;81.71
5966;BME280;3009;43.224;27.976;2023-02-14T03:59:50;101577.19;;;1.10;81.90
5966;BME280;3009;43.224;27.976;2023-02-14T04:02:21;101566.03;;;1.08;81.53
5966;BME280;3009;43.224;27.976;2023-02-14T04:04:52;101562.94;;;1.11;81.33
5966;BME280;3009;43.224;27.976;2023-02-14T04:07:22;101562.19;;;1.04;81.14
5966;BME280;3009;43.224;27.976;2023-02-14T04:09:52;101557.53;;;1.06;81.58
5966;BME280;3009;43.224;27.976;2023-02-14T04:12:21;101566.53;;;0.92;82.10
5966;BME280;3009;43.224;27.976;2023-02-14T04:15:04;101586.09;;;0.84;82.66
5966;BME280;3009;43.224;27.976;2023-02-14T04:17:32;101589.50;;;0.91;82.89
5966;BME280;3009;43.224;27.976;2023-02-14T04:20:18;101580.22;;;0.82;82.95
5966;BME280;3009;43.224;27.976;2023-02-14T04:22:46;101587.97;;;0.77;83.56
5966;BME280;3009;43.224;27.976;2023-02-14T04:25:16;101580.91;;;0.70;83.80
5966;BME280;3009;43.224;27.976;2023-02-14T04:27:45;101581.09;;;0.76;84.04
5966;BME280;3009;43.224;27.976;2023-02-14T04:30:14;101594.50;;;0.74;84.60
5966;BME280;3009;43.224;27.976;2023-02-14T04:32:43;101601.72;;;0.85;83.48
5966;BME280;3009;43.224;27.976;2023-02-14T04:35:12;101598.66;;;0.88;82.81
5966;BME280;3009;43.224;27.976;2023-02-14T04:37:40;101599.88;;;0.93;82.38
5966;BME280;3009;43.224;27.976;2023-02-14T04:40:09;101604.34;;;0.92;81.57
5966;BME280;3009;43.224;27.976;2023-02-14T04:42:39;101600.88;;;0.92;81.18
5966;BME280;3009;43.224;27.976;2023-02-14T04:45:07;101596.38;;;0.99;80.56
5966;BME280;3009;43.224;27.976;2023-02-14T04:47:36;101591.47;;;1.02;79.67
5966;BME280;3009;43.224;27.976;2023-02-14T04:50:05;101594.31;;;1.01;79.35
5966;BME280;3009;43.224;27.976;2023-02-14T04:52:33;101589.66;;;1.03;79.12
5966;BME280;3009;43.224;27.976;2023-02-14T04:55:02;101598.91;;;1.12;78.45
5966;BME280;3009;43.224;27.976;2023-02-14T04:57:31;101599.94;;;1.11;78.05
5966;BME280;3009;43.224;27.976;2023-02-14T05:00:01;101603.16;;;1.13;77.79
5966;BME280;3009;43.224;27.976;2023-02-14T05:02:29;101596.44;;;1.17;77.54
5966;BME280;3009;43.224;27.976;2023-02-14T05:04:57;101591.16;;;1.17;77.06
5966;BME280;3009;43.224;27.976;2023-02-14T05:07:25;101593.63;;;1.12;77.51
5966;BME280;3009;43.224;27.976;2023-02-14T05:09:54;101591.00;;;1.12;77.42
5966;BME280;3009;43.224;27.976;2023-02-14T05:12:22;101593.25;;;1.09;78.10
5966;BME280;3009;43.224;27.976;2023-02-14T05:14:51;101598.09;;;1.12;77.71
5966;BME280;3009;43.224;27.976;2023-02-14T05:17:20;101598.91;;;1.12;77.59
5966;BME280;3009;43.224;27.976;2023-02-14T05:19:48;101609.81;;;1.22;76.81
5966;BME280;3009;43.224;27.976;2023-02-14T05:22:17;101611.59;;;1.29;75.89
5966;BME280;3009;43.224;27.976;2023-02-14T05:24:45;101615.19;;;1.34;75.26
5966;BME280;3009;43.224;27.976;2023-02-14T05:27:13;101615.53;;;1.45;74.57
5966;BME280;3009;43.224;27.976;2023-02-14T05:29:41;101620.34;;;1.54;73.87
5966;BME280;3009;43.224;27.976;2023-02-14T05:32:09;101624.53;;;1.62;73.57
5966;BME280;3009;43.224;27.976;2023-02-14T05:34:39;101625.66;;;1.73;72.99
5966;BME280;3009;43.224;27.976;2023-02-14T05:37:07;101620.16;;;1.93;72.16
5966;BME280;3009;43.224;27.976;2023-02-14T05:39:35;101620.47;;;2.22;70.93
5966;BME280;3009;43.224;27.976;2023-02-14T05:42:03;101624.94;;;2.40;69.84
5966;BME280;3009;43.224;27.976;2023-02-14T05:44:31;101632.41;;;2.31;69.92
5966;BME280;3009;43.224;27.976;2023-02-14T05:47:01;101622.63;;;2.13;71.10
5966;BME280;3009;43.224;27.976;2023-02-14T05:49:29;101619.47;;;2.23;71.26
5966;BME280;3009;43.224;27.976;2023-02-14T05:51:58;101619.94;;;2.50;70.69
5966;BME280;3009;43.224;27.976;2023-02-14T05:54:26;101630.06;;;2.72;69.99
5966;BME280;3009;43.224;27.976;2023-02-14T05:56:55;101619.59;;;2.77;69.25
5966;BME280;3009;43.224;27.976;2023-02-14T05:59:23;101618.13;;;2.81;69.22
5966;BME280;3009;43.224;27.976;2023-02-14T06:01:51;101622.16;;;2.83;68.75
5966;BME280;3009;43.224;27.976;2023-02-14T06:04:19;101611.16;;;2.98;68.20
5966;BME280;3009;43.224;27.976;2023-02-14T06:06:47;101615.31;;;3.06;67.86
5966;BME280;3009;43.224;27.976;2023-02-14T06:09:17;101613.78;;;2.98;67.77
5966;BME280;3009;43.224;27.976;2023-02-14T06:11:45;101619.69;;;3.00;67.84
5966;BME280;3009;43.224;27.976;2023-02-14T06:14:13;101616.38;;;3.05;67.65
5966;BME280;3009;43.224;27.976;2023-02-14T06:16:41;101605.53;;;3.07;67.53
5966;BME280;3009;43.224;27.976;2023-02-14T06:19:10;101604.66;;;3.25;67.34
5966;BME280;3009;43.224;27.976;2023-02-14T06:21:38;101596.13;;;3.34;66.52
5966;BME280;3009;43.224;27.976;2023-02-14T06:24:06;101594.84;;;3.25;66.81
5966;BME280;3009;43.224;27.976;2023-02-14T06:26:35;101609.22;;;3.06;67.59
5966;BME280;3009;43.224;27.976;2023-02-14T06:29:04;101619.84;;;3.17;67.37
5966;BME280;3009;43.224;27.976;2023-02-14T06:31:32;101607.63;;;3.16;67.72
5966;BME280;3009;43.224;27.976;2023-02-14T06:34:00;101621.81;;;3.22;67.51
5966;BME280;3009;43.224;27.976;2023-02-14T06:36:29;101611.53;;;3.14;67.72
5966;BME280;3009;43.224;27.976;2023-02-14T06:38:57;101612.44;;;3.08;68.27
5966;BME280;3009;43.224;27.976;2023-02-14T06:41:25;101607.06;;;3.14;68.52
5966;BME280;3009;43.224;27.976;2023-02-14T06:43:54;101608.50;;;2.98;69.51
5966;BME280;3009;43.224;27.976;2023-02-14T06:46:23;101609.22;;;3.06;69.37
5966;BME280;3009;43.224;27.976;2023-02-14T06:48:51;101605.53;;;3.07;69.51
5966;BME280;3009;43.224;27.976;2023-02-14T06:51:19;101591.84;;;3.10;69.89
5966;BME280;3009;43.224;27.976;2023-02-14T06:53:47;101585.69;;;2.97;70.80
5966;BME280;3009;43.224;27.976;2023-02-14T06:56:15;101582.00;;;2.98;70.85
5966;BME280;3009;43.224;27.976;2023-02-14T06:58:43;101597.09;;;2.98;71.32
5966;BME280;3009;43.224;27.976;2023-02-14T07:01:13;101590.78;;;3.11;71.11
5966;BME280;3009;43.224;27.976;2023-02-14T07:03:41;101603.78;;;3.12;70.78
5966;BME280;3009;43.224;27.976;2023-02-14T07:06:09;101601.50;;;3.04;70.95
5966;BME280;3009;43.224;27.976;2023-02-14T07:08:38;101601.53;;;3.16;71.43
5966;BME280;3009;43.224;27.976;2023-02-14T07:11:06;101609.94;;;3.13;71.44
5966;BME280;3009;43.224;27.976;2023-02-14T07:13:34;101613.19;;;3.39;70.46
5966;BME280;3009;43.224;27.976;2023-02-14T07:16:02;101601.31;;;3.65;69.39
5966;BME280;3009;43.224;27.976;2023-02-14T07:18:32;101598.91;;;3.63;68.92
5966;BME280;3009;43.224;27.976;2023-02-14T07:21:00;101598.66;;;3.65;68.49
5966;BME280;3009;43.224;27.976;2023-02-14T07:23:29;101584.38;;;3.42;69.28
5966;BME280;3009;43.224;27.976;2023-02-14T07:25:58;101596.78;;;3.18;70.31
5966;BME280;3009;43.224;27.976;2023-02-14T07:28:26;101593.19;;;3.12;71.17
5966;BME280;3009;43.224;27.976;2023-02-14T07:30:58;101589.41;;;3.20;70.83
5966;BME280;3009;43.224;27.976;2023-02-14T07:33:27;101591.63;;;3.35;70.59
5966;BME280;3009;43.224;27.976;2023-02-14T07:35:57;101605.72;;;3.47;70.22
5966;BME280;3009;43.224;27.976;2023-02-14T07:38:25;101604.34;;;3.57;69.89
5966;BME280;3009;43.224;27.976;2023-02-14T07:40:56;101601.69;;;3.68;69.73
5966;BME280;3009;43.224;27.976;2023-02-14T07:43:25;101602.72;;;3.79;69.30
5966;BME280;3009;43.224;27.976;2023-02-14T07:45:53;101614.13;;;3.80;68.77
5966;BME280;3009;43.224;27.976;2023-02-14T07:48:21;101595.41;;;3.86;68.67
5966;BME280;3009;43.224;27.976;2023-02-14T07:50:50;101608.09;;;3.96;68.47
5966;BME280;3009;43.224;27.976;2023-02-14T07:53:23;101590.56;;;3.95;68.26
5966;BME280;3009;43.224;27.976;2023-02-14T07:55:52;101592.16;;;4.08;68.24
5966;BME280;3009;43.224;27.976;2023-02-14T07:58:20;101597.56;;;4.13;67.38
5966;BME280;3009;43.224;27.976;2023-02-14T08:00:48;101592.16;;;4.20;67.16
5966;BME280;3009;43.224;27.976;2023-02-14T08:03:17;101595.56;;;4.32;66.55
5966;BME280;3009;43.224;27.976;2023-02-14T08:05:47;101588.53;;;4.38;65.81
5966;BME280;3009;43.224;27.976;2023-02-14T08:08:26;101584.69;;;4.46;65.74
5966;BME280;3009;43.224;27.976;2023-02-14T08:10:54;101586.72;;;4.55;65.57
5966;BME280;3009;43.224;27.976;2023-02-14T08:13:23;101584.19;;;4.49;65.85
5966;BME280;3009;43.224;27.976;2023-02-14T08:15:51;101573.44;;;4.55;65.07
5966;BME280;3009;43.224;27.976;2023-02-14T08:18:34;101569.56;;;4.63;64.70
5966;BME280;3009;43.224;27.976;2023-02-14T08:21:03;101577.66;;;4.68;64.62
5966;BME280;3009;43.224;27.976;2023-02-14T08:23:34;101564.38;;;4.68;64.41
5966;BME280;3009;43.224;27.976;2023-02-14T08:26:02;101565.25;;;4.74;63.94
5966;BME280;3009;43.224;27.976;2023-02-14T08:28:31;101564.44;;;4.73;63.99
5966;BME280;3009;43.224;27.976;2023-02-14T08:31:01;101565.59;;;4.77;63.31
5966;BME280;3009;43.224;27.976;2023-02-14T08:33:30;101564.88;;;4.82;63.03
5966;BME280;3009;43.224;27.976;2023-02-14T08:35:58;101571.81;;;5.00;63.59
5966;BME280;3009;43.224;27.976;2023-02-14T08:38:27;101568.34;;;5.00;62.71
5966;BME280;3009;43.224;27.976;2023-02-14T08:40:59;101578.91;;;5.11;62.58
5966;BME280;3009;43.224;27.976;2023-02-14T08:43:33;101568.34;;;5.17;62.01
5966;BME280;3009;43.224;27.976;2023-02-14T08:46:01;101565.03;;;5.26;61.46
5966;BME280;3009;43.224;27.976;2023-02-14T08:48:29;101573.03;;;5.26;61.93
5966;BME280;3009;43.224;27.976;2023-02-14T08:50:57;101556.97;;;5.38;61.96
5966;BME280;3009;43.224;27.976;2023-02-14T08:53:26;101561.16;;;5.51;61.33
5966;BME280;3009;43.224;27.976;2023-02-14T08:55:54;101567.13;;;5.41;60.27
5966;BME280;3009;43.224;27.976;2023-02-14T08:58:25;101558.00;;;5.54;59.93
5966;BME280;3009;43.224;27.976;2023-02-14T09:00:53;101548.22;;;5.60;59.03
5966;BME280;3009;43.224;27.976;2023-02-14T09:03:22;101556.59;;;5.68;58.18
5966;BME280;3009;43.224;27.976;2023-02-14T09:05:50;101548.91;;;5.72;57.65
5966;BME280;3009;43.224;27.976;2023-02-14T09:08:18;101554.72;;;5.86;56.81
5966;BME280;3009;43.224;27.976;2023-02-14T09:10:47;101550.81;;;5.94;56.43
5966;BME280;3009;43.224;27.976;2023-02-14T09:13:15;101543.03;;;6.09;54.96
5966;BME280;3009;43.224;27.976;2023-02-14T09:15:45;101545.09;;;6.29;53.45
5966;BME280;3009;43.224;27.976;2023-02-14T09:18:13;101543.13;;;6.42;52.52
5966;BME280;3009;43.224;27.976;2023-02-14T09:20:41;101548.50;;;6.47;52.06
5966;BME280;3009;43.224;27.976;2023-02-14T09:23:11;101532.41;;;6.36;53.72
5966;BME280;3009;43.224;27.976;2023-02-14T09:25:39;101541.91;;;6.27;55.01
5966;BME280;3009;43.224;27.976;2023-02-14T09:28:07;101542.16;;;6.26;55.19
5966;BME280;3009;43.224;27.976;2023-02-14T09:30:35;101539.78;;;6.29;52.91
5966;BME280;3009;43.224;27.976;2023-02-14T09:33:05;101534.03;;;6.37;52.37
5966;BME280;3009;43.224;27.976;2023-02-14T09:35:33;101534.31;;;6.41;53.11
5966;BME280;3009;43.224;27.976;2023-02-14T09:38:19;101534.38;;;6.46;53.12
5966;BME280;3009;43.224;27.976;2023-02-14T09:40:47;101534.16;;;6.53;51.36
5966;BME280;3009;43.224;27.976;2023-02-14T09:43:19;101532.03;;;6.55;51.25
5966;BME280;3009;43.224;27.976;2023-02-14T09:45:53;101531.34;;;6.65;50.21
5966;BME280;3009;43.224;27.976;2023-02-14T09:48:26;101539.84;;;6.62;51.68
5966;BME280;3009;43.224;27.976;2023-02-14T09:50:59;101551.69;;;6.76;51.88
5966;BME280;3009;43.224;27.976;2023-02-14T09:53:32;101542.28;;;6.68;51.48
5966;BME280;3009;43.224;27.976;2023-02-14T09:56:07;101549.66;;;6.56;52.32
5966;BME280;3009;43.224;27.976;2023-02-14T09:58:43;101535.13;;;6.69;52.29
5966;BME280;3009;43.224;27.976;2023-02-14T10:01:17;101530.59;;;6.69;51.67
5966;BME280;3009;43.224;27.976;2023-02-14T10:04:14;101529.31;;;6.77;51.98
5966;BME280;3009;43.224;27.976;2023-02-14T10:06:49;101540.53;;;6.79;51.58
5966;BME280;3009;43.224;27.976;2023-02-14T10:09:42;101523.22;;;6.82;52.57
5966;BME280;3009;43.224;27.976;2023-02-14T10:12:21;101527.84;;;6.91;52.06
5966;BME280;3009;43.224;27.976;2023-02-14T10:14:52;101515.59;;;6.96;51.73
5966;BME280;3009;43.224;27.976;2023-02-14T10:17:29;101507.41;;;7.07;51.88
5966;BME280;3009;43.224;27.976;2023-02-14T10:20:05;101503.13;;;7.01;50.96
5966;BME280;3009;43.224;27.976;2023-02-14T10:22:42;101502.34;;;7.06;51.12
5966;BME280;3009;43.224;27.976;2023-02-14T10:25:16;101501.81;;;7.09;49.62
5966;BME280;3009;43.224;27.976;2023-02-14T10:27:48;101503.22;;;7.17;49.17
5966;BME280;3009;43.224;27.976;2023-02-14T10:30:18;101506.66;;;7.12;49.11
5966;BME280;3009;43.224;27.976;2023-02-14T10:32:48;101491.22;;;7.14;49.35
5966;BME280;3009;43.224;27.976;2023-02-14T10:35:30;101498.97;;;7.21;49.00
5966;BME280;3009;43.224;27.976;2023-02-14T10:38:12;101490.66;;;7.12;49.22
5966;BME280;3009;43.224;27.976;2023-02-14T10:40:53;101490.44;;;7.19;49.02
5966;BME280;3009;43.224;27.976;2023-02-14T10:43:33;101480.53;;;7.14;49.26
5966;BME280;3009;43.224;27.976;2023-02-14T10:46:14;101491.75;;;7.16;47.77
5966;BME280;3009;43.224;27.976;2023-02-14T10:48:51;101477.91;;;7.19;46.22
5966;BME280;3009;43.224;27.976;2023-02-14T10:51:30;101483.50;;;7.18;46.61
5966;BME280;3009;43.224;27.976;2023-02-14T10:54:15;101482.69;;;7.17;47.08
5966;BME280;3009;43.224;27.976;2023-02-14T10:56:48;101474.50;;;7.34;47.35
5966;BME280;3009;43.224;27.976;2023-02-14T10:59:22;101479.78;;;7.24;46.94
5966;BME280;3009;43.224;27.976;2023-02-14T11:01:54;101468.66;;;7.42;46.68
5966;BME280;3009;43.224;27.976;2023-02-14T11:04:23;101475.34;;;7.40;46.38
5966;BME280;3009;43.224;27.976;2023-02-14T11:06:53;101473.50;;;7.45;47.10
5966;BME280;3009;43.224;27.976;2023-02-14T11:09:21;101457.53;;;7.56;46.57
5966;BME280;3009;43.224;27.976;2023-02-14T11:11:51;101454.31;;;7.54;46.67
5966;BME280;3009;43.224;27.976;2023-02-14T11:14:23;101459.34;;;7.40;46.34
5966;BME280;3009;43.224;27.976;2023-02-14T11:16:53;101451.34;;;7.40;47.27
5966;BME280;3009;43.224;27.976;2023-02-14T11:19:24;101453.50;;;7.43;47.61
5966;BME280;3009;43.224;27.976;2023-02-14T11:21:57;101460.66;;;7.37;47.82
5966;BME280;3009;43.224;27.976;2023-02-14T11:24:28;101449.72;;;7.44;47.01
5966;BME280;3009;43.224;27.976;2023-02-14T11:26:58;101452.41;;;7.44;46.79
5966;BME280;3009;43.224;27.976;2023-02-14T11:29:29;101440.94;;;7.38;46.95
5966;BME280;3009;43.224;27.976;2023-02-14T11:32:06;101441.44;;;7.35;46.47
5966;BME280;3009;43.224;27.976;2023-02-14T11:34:36;101438.47;;;7.26;47.51
5966;BME280;3009;43.224;27.976;2023-02-14T11:37:23;101439.06;;;7.39;47.99
5966;BME280;3009;43.224;27.976;2023-02-14T11:39:53;101439.91;;;7.55;47.90
5966;BME280;3009;43.224;27.976;2023-02-14T11:42:52;101440.16;;;7.43;48.22
5966;BME280;3009;43.224;27.976;2023-02-14T11:45:40;101449.22;;;7.47;48.82
5966;BME280;3009;43.224;27.976;2023-02-14T11:48:16;101440.69;;;7.50;48.40
5966;BME280;3009;43.224;27.976;2023-02-14T11:51:00;101429.75;;;7.52;48.35
5966;BME280;3009;43.224;27.976;2023-02-14T11:53:39;101431.97;;;7.70;48.41
5966;BME280;3009;43.224;27.976;2023-02-14T11:56:11;101434.59;;;7.65;48.07
5966;BME280;3009;43.224;27.976;2023-02-14T11:58:46;101426.63;;;7.70;47.22
5966;BME280;3009;43.224;27.976;2023-02-14T12:01:21;101438.09;;;7.71;47.27
5966;BME280;3009;43.224;27.976;2023-02-14T12:03:52;101434.88;;;7.63;46.16
5966;BME280;3009;43.224;27.976;2023-02-14T12:06:23;101423.13;;;7.65;45.36
5966;BME280;3009;43.224;27.976;2023-02-14T12:09:09;101417.81;;;7.65;45.92
5966;BME280;3009;43.224;27.976;2023-02-14T12:11:38;101413.50;;;7.58;45.84
5966;BME280;3009;43.224;27.976;2023-02-14T12:14:20;101417.00;;;7.74;46.35
5966;BME280;3009;43.224;27.976;2023-02-14T12:16:56;101420.28;;;7.92;46.42
5966;BME280;3009;43.224;27.976;2023-02-14T12:19:33;101417.31;;;7.78;47.21
5966;BME280;3009;43.224;27.976;2023-02-14T12:22:07;101418.13;;;7.84;46.95
5966;BME280;3009;43.224;27.976;2023-02-14T12:24:51;101423.22;;;8.06;46.64
5966;BME280;3009;43.224;27.976;2023-02-14T12:27:24;101420.03;;;8.09;46.23
5966;BME280;3009;43.224;27.976;2023-02-14T12:29:59;101413.38;;;8.27;45.70
5966;BME280;3009;43.224;27.976;2023-02-14T12:32:30;101397.88;;;8.29;46.06
5966;BME280;3009;43.224;27.976;2023-02-14T12:35:02;101409.09;;;8.41;46.08
5966;BME280;3009;43.224;27.976;2023-02-14T12:37:40;101401.88;;;8.42;45.91
5966;BME280;3009;43.224;27.976;2023-02-14T12:40:41;101393.34;;;8.45;46.24
5966;BME280;3009;43.224;27.976;2023-02-14T12:43:39;101397.88;;;8.34;46.84
5966;BME280;3009;43.224;27.976;2023-02-14T12:46:19;101389.56;;;8.15;46.56
5966;BME280;3009;43.224;27.976;2023-02-14T12:49:04;101387.66;;;7.85;47.51
5966;BME280;3009;43.224;27.976;2023-02-14T12:51:41;101389.03;;;7.82;47.71
5966;BME280;3009;43.224;27.976;2023-02-14T12:54:26;101387.41;;;7.81;48.07
5966;BME280;3009;43.224;27.976;2023-02-14T12:57:05;101384.50;;;7.93;47.37
5966;BME280;3009;43.224;27.976;2023-02-14T12:59:41;101384.75;;;7.91;46.79
5966;BME280;3009;43.224;27.976;2023-02-14T13:02:38;101382.59;;;7.83;47.55
5966;BME280;3009;43.224;27.976;2023-02-14T13:05:21;101395.97;;;7.93;47.81
5966;BME280;3009;43.224;27.976;2023-02-14T13:08:13;101394.88;;;7.84;47.35
5966;BME280;3009;43.224;27.976;2023-02-14T13:10:50;101395.38;;;7.71;48.31
5966;BME280;3009;43.224;27.976;2023-02-14T13:13:30;101402.09;;;7.89;48.00
5966;BME280;3009;43.224;27.976;2023-02-14T13:16:08;101391.41;;;7.78;48.02
5966;BME280;3009;43.224;27.976;2023-02-14T13:18:48;101394.09;;;7.84;48.17
5966;BME280;3009;43.224;27.976;2023-02-14T13:21:21;101391.63;;;7.67;48.41
5966;BME280;3009;43.224;27.976;2023-02-14T13:23:52;101386.28;;;7.61;48.69
5966;BME280;3009;43.224;27.976;2023-02-14T13:26:24;101388.16;;;7.71;48.19
5966;BME280;3009;43.224;27.976;2023-02-14T13:29:01;101392.69;;;7.55;48.67
5966;BME280;3009;43.224;27.976;2023-02-14T13:31:30;101390.53;;;7.52;48.96
5966;BME280;3009;43.224;27.976;2023-02-14T13:34:05;101402.75;;;7.38;48.90
5966;BME280;3009;43.224;27.976;2023-02-14T13:36:36;101395.81;;;7.37;49.20
5966;BME280;3009;43.224;27.976;2023-02-14T13:39:04;101396.34;;;7.34;49.11
5966;BME280;3009;43.224;27.976;2023-02-14T13:41:33;101394.16;;;7.20;48.63
5966;BME280;3009;43.224;27.976;2023-02-14T13:44:08;101389.94;;;7.35;48.45
5966;BME280;3009;43.224;27.976;2023-02-14T13:46:48;101378.16;;;7.20;48.44